createdAt,value
2022-08-02T00:00:43.305Z,77.56
2022-08-02T00:03:45.160Z,77.48
2022-08-02T00:06:47.436Z,77.39
2022-08-02T00:09:49.467Z,77.78
2022-08-02T00:12:51.350Z,77.48
2022-08-02T00:15:55.199Z,78.38
2022-08-02T00:18:57.246Z,78.47
2022-08-02T00:21:59.843Z,78.64
2022-08-02T00:25:01.704Z,78.76
2022-08-02T00:28:03.653Z,78.90
2022-08-02T00:31:06.837Z,78.99
2022-08-02T00:34:31.000Z,78.93
2022-08-02T00:37:30.731Z,78.51
2022-08-02T00:40:32.631Z,78.55
2022-08-02T00:43:37.147Z,78.78
2022-08-02T00:46:39.039Z,79.11
2022-08-02T00:49:41.006Z,78.40
2022-08-02T00:52:42.945Z,78.61
2022-08-02T00:55:44.906Z,78.68
2022-08-02T00:58:46.792Z,78.95
2022-08-02T01:01:55.642Z,78.81
2022-08-02T01:04:58.782Z,78.64
2022-08-02T01:08:00.599Z,79.15
2022-08-02T01:11:02.530Z,79.16
2022-08-02T01:14:11.486Z,79.85
2022-08-02T01:17:19.958Z,80.39
2022-08-02T01:20:46.436Z,80.97
2022-08-02T01:24:10.060Z,81.95
2022-08-02T01:27:35.143Z,81.59
2022-08-02T01:30:41.621Z,81.38
2022-08-02T01:33:51.801Z,81.95
2022-08-02T01:37:21.876Z,81.79
2022-08-02T01:40:35.701Z,82.25
2022-08-02T01:43:40.455Z,82.03
2022-08-02T01:46:43.094Z,81.78
2022-08-02T01:49:48.092Z,82.34
2022-08-02T01:52:53.934Z,82.54
2022-08-02T01:55:59.826Z,82.48
2022-08-02T01:59:04.377Z,82.73
2022-08-02T02:02:09.536Z,82.30
2022-08-02T02:05:15.578Z,83.06
2022-08-02T02:08:26.981Z,82.93
2022-08-02T02:12:06.113Z,83.01
2022-08-02T02:14:57.529Z,83.24
2022-08-02T02:18:12.570Z,83.54
2022-08-02T02:21:16.656Z,82.93
2022-08-02T02:24:18.662Z,82.91
2022-08-02T02:27:22.889Z,83.88
2022-08-02T02:30:28.325Z,83.56
2022-08-02T02:33:33.142Z,83.45
2022-08-02T02:36:36.336Z,83.41
2022-08-02T02:39:40.083Z,83.33
2022-08-02T02:42:49.370Z,83.56
2022-08-02T02:45:53.250Z,83.22
2022-08-02T02:48:55.945Z,83.78
2022-08-02T02:51:58.113Z,83.52
2022-08-02T02:55:01.073Z,83.49
2022-08-02T02:58:03.651Z,83.12
2022-08-02T03:01:55.837Z,83.03
2022-08-02T03:04:57.125Z,82.63
2022-08-02T03:07:59.891Z,82.47
2022-08-02T03:11:02.237Z,82.25
2022-08-02T03:14:14.820Z,82.13
2022-08-02T03:17:16.948Z,82.11
2022-08-02T03:20:20.737Z,81.84
2022-08-02T03:23:22.565Z,82.16
2022-08-02T03:26:24.504Z,82.50
2022-08-02T03:29:26.498Z,81.97
2022-08-02T03:32:28.710Z,81.81
2022-08-02T03:35:30.743Z,82.06
2022-08-02T03:38:33.826Z,81.69
2022-08-02T03:41:37.723Z,81.96
2022-08-02T03:44:40.301Z,82.33
2022-08-02T03:47:44.178Z,82.09
2022-08-02T03:50:47.995Z,82.40
2022-08-02T03:53:50.764Z,82.55
2022-08-02T03:56:52.857Z,82.67
2022-08-02T03:59:54.840Z,82.88
2022-08-02T04:02:56.863Z,82.63
2022-08-02T04:05:59.212Z,82.70
2022-08-02T04:09:06.190Z,82.61
2022-08-02T04:12:08.428Z,82.38
2022-08-02T04:15:15.650Z,82.82
2022-08-02T04:18:19.985Z,82.12
2022-08-02T04:21:25.913Z,82.02
2022-08-02T04:24:34.445Z,81.53
2022-08-02T04:27:50.527Z,81.01
2022-08-02T04:31:01.464Z,80.56
2022-08-02T04:34:04.204Z,80.86
2022-08-02T04:37:06.498Z,80.93
2022-08-02T04:40:12.705Z,81.40
2022-08-02T04:43:14.562Z,81.32
2022-08-02T04:46:16.675Z,81.29
2022-08-02T04:49:18.616Z,81.48
2022-08-02T04:52:20.641Z,81.37
2022-08-02T04:55:25.540Z,81.05
2022-08-02T04:58:42.527Z,81.28
2022-08-02T05:01:44.551Z,81.26
2022-08-02T05:04:46.473Z,81.32
2022-08-02T05:07:48.673Z,81.54
2022-08-02T05:10:50.650Z,82.03
2022-08-02T05:13:58.795Z,82.25
2022-08-02T05:17:01.418Z,82.47
2022-08-02T05:20:05.239Z,82.14
2022-08-02T05:23:07.470Z,81.56
2022-08-02T05:26:09.373Z,81.48
2022-08-02T05:29:11.355Z,81.78
2022-08-02T05:32:13.598Z,82.07
2022-08-02T05:35:20.360Z,80.97
2022-08-02T05:38:26.244Z,82.12
2022-08-02T05:41:28.323Z,82.14
2022-08-02T05:44:30.175Z,81.55
2022-08-02T05:47:32.132Z,81.71
2022-08-02T05:50:39.896Z,82.02
2022-08-02T05:53:49.222Z,82.41
2022-08-02T05:57:26.400Z,82.89
2022-08-02T06:00:35.397Z,82.28
2022-08-02T06:03:43.648Z,81.31
2022-08-02T06:06:50.268Z,80.82
2022-08-02T06:09:52.702Z,79.70
2022-08-02T06:13:08.495Z,79.44
2022-08-02T06:16:14.340Z,79.32
2022-08-02T06:19:19.408Z,78.71
2022-08-02T06:22:35.977Z,76.93
2022-08-02T06:25:51.135Z,76.40
2022-08-02T06:28:55.822Z,74.35
2022-08-02T06:31:58.792Z,73.92
2022-08-02T06:35:01.738Z,72.81
2022-08-02T06:38:04.536Z,71.05
2022-08-02T06:41:09.449Z,71.58
2022-08-02T06:44:45.022Z,70.16
2022-08-02T06:47:35.984Z,69.21
2022-08-02T06:50:38.953Z,69.09
2022-08-02T06:53:41.426Z,68.64
2022-08-02T06:56:43.418Z,69.03
2022-08-02T06:59:45.412Z,67.93
2022-08-02T07:02:47.670Z,68.72
2022-08-02T07:05:49.482Z,68.39
2022-08-02T07:09:18.259Z,66.78
2022-08-02T07:12:14.833Z,65.75
2022-08-02T07:15:17.094Z,64.68
2022-08-02T07:18:19.070Z,63.30
2022-08-02T07:21:56.045Z,61.38
2022-08-02T07:24:45.894Z,61.58
2022-08-02T07:27:47.988Z,61.68
2022-08-02T07:30:50.408Z,60.26
2022-08-02T07:33:53.141Z,58.89
2022-08-02T07:36:55.883Z,58.97
2022-08-02T07:39:58.725Z,57.10
2022-08-02T07:43:04.227Z,56.17
2022-08-02T07:46:06.441Z,56.90
2022-08-02T07:49:08.936Z,55.77
2022-08-02T07:52:12.511Z,56.03
2022-08-02T07:55:18.308Z,55.48
2022-08-02T07:58:20.353Z,55.45
2022-08-02T08:01:22.190Z,55.28
2022-08-02T08:04:24.478Z,54.79
2022-08-02T08:07:27.026Z,54.52
2022-08-02T08:10:29.137Z,53.92
2022-08-02T08:13:31.063Z,53.69
2022-08-02T08:16:33.186Z,51.71
2022-08-02T08:19:51.490Z,52.93
2022-08-02T08:22:54.173Z,52.17
2022-08-02T08:25:55.976Z,51.07
2022-08-02T08:28:57.964Z,52.89
2022-08-02T08:31:59.934Z,49.89
2022-08-02T08:35:03.788Z,49.81
2022-08-02T08:38:07.937Z,50.45
2022-08-02T08:41:10.145Z,48.46
2022-08-02T08:44:12.282Z,49.57
2022-08-02T08:47:14.756Z,47.16
2022-08-02T08:50:25.882Z,46.08
2022-08-02T08:53:36.351Z,45.72
2022-08-02T08:56:41.962Z,46.61
2022-08-02T08:59:44.989Z,44.91
2022-08-02T09:02:47.816Z,44.24
2022-08-02T09:05:50.126Z,44.70
2022-08-02T09:08:52.705Z,44.43
2022-08-02T09:11:54.880Z,45.88
2022-08-02T09:14:59.388Z,45.11
2022-08-02T09:18:06.632Z,45.36
2022-08-02T09:21:10.565Z,45.36
2022-08-02T09:24:22.608Z,46.71
2022-08-02T09:27:24.978Z,46.83
2022-08-02T09:30:27.761Z,46.60
2022-08-02T09:33:30.351Z,45.94
2022-08-02T09:36:44.907Z,45.94
2022-08-02T09:39:50.456Z,45.76
2022-08-02T09:42:59.581Z,45.17
2022-08-02T09:46:12.899Z,44.88
2022-08-02T09:49:17.480Z,44.77
2022-08-02T09:52:37.313Z,45.20
2022-08-02T09:55:56.534Z,44.59
2022-08-02T09:58:58.507Z,46.09
2022-08-02T10:02:04.533Z,46.02
2022-08-02T10:05:07.011Z,46.46
2022-08-02T10:08:09.951Z,47.00
2022-08-02T10:11:12.765Z,47.57
2022-08-02T10:14:15.525Z,47.30
2022-08-02T10:17:18.869Z,48.27
2022-08-02T10:20:21.694Z,47.46
2022-08-02T10:23:27.781Z,47.29
2022-08-02T10:26:38.848Z,47.05
2022-08-02T10:29:50.455Z,47.08
2022-08-02T10:33:00.932Z,47.00
2022-08-02T10:36:07.185Z,46.31
2022-08-02T10:39:10.432Z,47.01
2022-08-02T10:42:33.687Z,45.79
2022-08-02T10:45:35.717Z,45.17
2022-08-02T10:49:36.194Z,44.62
2022-08-02T10:52:31.402Z,47.33
2022-08-02T10:55:45.299Z,45.67
2022-08-02T10:58:47.456Z,47.44
2022-08-02T11:01:49.512Z,47.58
2022-08-02T11:04:51.518Z,47.74
2022-08-02T11:07:53.548Z,47.90
2022-08-02T11:11:15.301Z,47.87
2022-08-02T11:14:18.008Z,48.53
2022-08-02T11:17:20.157Z,48.99
2022-08-02T11:20:24.471Z,48.61
2022-08-02T11:23:44.506Z,48.07
2022-08-02T11:26:49.137Z,48.78
2022-08-02T11:29:51.597Z,48.11
2022-08-02T11:32:58.648Z,48.55
2022-08-02T11:36:06.150Z,49.14
2022-08-02T11:39:16.064Z,49.87
2022-08-02T11:42:18.149Z,49.56
2022-08-02T11:45:29.345Z,49.68
2022-08-02T11:48:39.736Z,49.75
2022-08-02T11:52:05.545Z,49.88
2022-08-02T11:55:12.139Z,50.57
2022-08-02T11:58:16.343Z,50.84
2022-08-02T12:01:18.321Z,50.95
2022-08-02T12:04:22.736Z,50.62
2022-08-02T12:07:31.983Z,50.89
2022-08-02T12:10:48.111Z,49.49
2022-08-02T12:13:56.691Z,47.43
2022-08-02T12:17:20.492Z,46.50
2022-08-02T12:20:36.296Z,47.12
2022-08-02T12:24:00.326Z,46.68
2022-08-02T12:27:04.181Z,46.54
2022-08-02T12:30:16.215Z,47.92
2022-08-02T12:33:20.174Z,48.38
2022-08-02T12:36:24.568Z,48.54
2022-08-02T12:39:45.833Z,48.50
2022-08-02T12:42:58.742Z,47.75
2022-08-02T12:46:01.523Z,48.69
2022-08-02T12:49:19.871Z,46.82
2022-08-02T12:52:23.288Z,48.42
2022-08-02T12:56:00.489Z,47.71
2022-08-02T12:58:52.180Z,48.36
2022-08-02T13:01:54.192Z,47.88
2022-08-02T13:04:59.991Z,45.87
2022-08-02T13:08:03.727Z,46.61
2022-08-02T13:11:06.050Z,46.14
2022-08-02T13:14:08.062Z,44.28
2022-08-02T13:17:12.820Z,45.80
2022-08-02T13:20:15.423Z,44.81
2022-08-02T13:23:21.648Z,45.24
2022-08-02T13:26:26.448Z,44.94
2022-08-02T13:29:31.798Z,43.94
2022-08-02T13:32:33.940Z,44.56
2022-08-02T13:35:35.906Z,43.70
2022-08-02T13:38:37.773Z,43.21
2022-08-02T13:41:40.227Z,43.21
2022-08-02T13:44:42.296Z,43.93
2022-08-02T13:48:03.573Z,44.35
2022-08-02T13:51:12.152Z,43.36
2022-08-02T13:54:17.350Z,43.05
2022-08-02T13:57:19.497Z,43.29
2022-08-02T14:00:34.616Z,44.29
2022-08-02T14:04:06.126Z,44.43
2022-08-02T14:07:00.345Z,44.96
2022-08-02T14:10:02.315Z,43.75
2022-08-02T14:13:07.021Z,42.46
2022-08-02T14:16:09.417Z,43.08
2022-08-02T14:19:15.933Z,42.92
2022-08-02T14:22:19.026Z,43.16
2022-08-02T14:25:22.484Z,42.42
2022-08-02T14:28:25.132Z,42.46
2022-08-02T14:31:29.612Z,42.88
2022-08-02T14:34:31.713Z,41.56
2022-08-02T14:37:34.150Z,41.83
2022-08-02T14:40:36.121Z,42.04
2022-08-02T14:43:57.208Z,42.07
2022-08-02T14:46:59.937Z,41.44
2022-08-02T14:50:02.537Z,41.84
2022-08-02T14:53:04.831Z,42.44
2022-08-02T14:56:06.808Z,42.22
2022-08-02T14:59:08.779Z,42.48
2022-08-02T15:02:13.446Z,42.29
2022-08-02T15:05:15.996Z,41.90
2022-08-02T15:08:18.018Z,40.88
2022-08-02T15:11:20.023Z,42.20
2022-08-02T15:14:26.328Z,42.75
2022-08-02T15:17:28.564Z,44.66
2022-08-02T15:20:30.440Z,44.90
2022-08-02T15:23:38.469Z,45.55
2022-08-02T15:26:40.649Z,46.61
2022-08-02T15:29:44.522Z,47.40
2022-08-02T15:32:53.318Z,48.59
2022-08-02T15:35:55.820Z,48.77
2022-08-02T15:39:00.738Z,49.25
2022-08-02T15:42:03.677Z,48.97
2022-08-02T15:45:05.987Z,49.25
2022-08-02T15:48:08.722Z,49.38
2022-08-02T15:51:10.797Z,50.25
2022-08-02T15:54:12.665Z,50.57
2022-08-02T15:57:14.565Z,50.53
2022-08-02T16:00:18.672Z,50.38
2022-08-02T16:03:21.446Z,50.59
2022-08-02T16:06:23.338Z,50.40
2022-08-02T16:09:27.456Z,50.93
2022-08-02T16:12:32.367Z,51.36
2022-08-02T16:15:34.932Z,51.57
2022-08-02T16:18:36.997Z,51.59
2022-08-02T16:21:38.994Z,51.24
2022-08-02T16:24:41.137Z,50.37
2022-08-02T16:28:06.490Z,50.55
2022-08-02T16:31:11.333Z,50.35
2022-08-02T16:34:13.566Z,50.29
2022-08-02T16:37:15.753Z,50.08
2022-08-02T16:40:17.944Z,50.44
2022-08-02T16:43:20.046Z,50.88
2022-08-02T16:46:21.871Z,50.61
2022-08-02T16:50:07.152Z,50.50
2022-08-02T16:52:48.506Z,50.98
2022-08-02T16:55:53.333Z,51.65
2022-08-02T16:58:59.469Z,52.39
2022-08-02T17:02:15.327Z,52.86
2022-08-02T17:05:20.992Z,53.29
2022-08-02T17:08:23.014Z,53.61
2022-08-02T17:11:33.699Z,53.54
2022-08-02T17:14:54.644Z,53.91
2022-08-02T17:17:58.114Z,54.22
2022-08-02T17:21:03.987Z,54.11
2022-08-02T17:24:08.112Z,54.05
2022-08-02T17:27:11.566Z,53.80
2022-08-02T17:30:15.538Z,54.06
2022-08-02T17:33:17.383Z,53.87
2022-08-02T17:36:19.095Z,54.26
2022-08-02T17:39:22.543Z,53.88
2022-08-02T17:42:25.030Z,54.23
2022-08-02T17:45:27.926Z,54.42
2022-08-02T17:49:07.808Z,54.53
2022-08-02T17:52:48.661Z,54.62
2022-08-02T17:55:33.467Z,54.64
2022-08-02T17:58:36.756Z,55.40
2022-08-02T18:02:11.528Z,55.66
2022-08-02T18:05:15.287Z,55.99
2022-08-02T18:08:17.325Z,55.82
2022-08-02T18:11:51.842Z,56.20
2022-08-02T18:14:49.082Z,56.42
2022-08-02T18:17:51.856Z,57.31
2022-08-02T18:21:08.126Z,57.39
2022-08-02T18:24:24.079Z,57.59
2022-08-02T18:27:26.083Z,58.31
2022-08-02T18:30:28.647Z,58.13
2022-08-02T18:33:58.317Z,58.35
2022-08-02T18:36:53.517Z,58.58
2022-08-02T18:39:59.708Z,58.74
2022-08-02T18:43:07.975Z,58.89
2022-08-02T18:46:15.311Z,58.92
2022-08-02T18:49:18.410Z,58.55
2022-08-02T18:52:31.189Z,58.33
2022-08-02T18:55:59.574Z,58.30
2022-08-02T18:58:58.506Z,58.80
2022-08-02T19:02:00.495Z,58.96
2022-08-02T19:05:02.518Z,58.79
2022-08-02T19:08:11.653Z,58.16
2022-08-02T19:11:13.825Z,58.55
2022-08-02T19:14:24.316Z,58.71
2022-08-02T19:17:55.493Z,59.44
2022-08-02T19:20:58.200Z,59.41
2022-08-02T19:27:26.239Z,57.69
2022-08-02T19:30:36.248Z,58.18
2022-08-02T19:34:04.459Z,58.33
2022-08-02T19:37:06.584Z,58.19
2022-08-02T19:40:15.610Z,58.13
2022-08-02T19:44:26.417Z,58.87
2022-08-02T19:46:42.051Z,58.55
2022-08-02T19:49:51.174Z,58.57
2022-08-02T19:52:54.470Z,58.22
2022-08-02T19:55:58.699Z,57.54
2022-08-02T19:59:13.911Z,57.03
2022-08-02T20:02:18.367Z,56.96
2022-08-02T20:05:26.631Z,57.01
2022-08-02T20:08:35.320Z,57.32
2022-08-02T20:11:40.116Z,57.87
2022-08-02T20:14:50.673Z,58.04
2022-08-02T20:17:53.228Z,58.49
2022-08-02T20:20:55.359Z,59.56
2022-08-02T20:23:57.584Z,60.41
2022-08-02T20:27:02.589Z,61.57
2022-08-02T20:30:05.701Z,62.27
2022-08-02T20:33:21.298Z,62.18
2022-08-02T20:36:25.587Z,62.21
2022-08-02T20:39:43.082Z,62.70
2022-08-02T20:42:50.835Z,62.78
2022-08-02T20:45:55.554Z,63.38
2022-08-02T20:48:59.551Z,64.45
2022-08-02T20:52:04.626Z,65.98
2022-08-02T20:55:27.268Z,66.85
2022-08-02T20:58:37.943Z,67.01
2022-08-02T21:01:40.645Z,67.68
2022-08-02T21:04:59.744Z,67.63
2022-08-02T21:08:15.333Z,68.13
2022-08-02T21:11:33.624Z,68.54
2022-08-02T21:14:36.691Z,68.48
2022-08-02T21:18:12.294Z,68.71
2022-08-02T21:21:16.478Z,69.03
2022-08-02T21:24:24.691Z,69.42
2022-08-02T21:30:57.754Z,70.36
2022-08-02T21:34:00.520Z,70.22
2022-08-02T21:37:09.856Z,70.37
2022-08-02T21:40:17.612Z,70.35
2022-08-02T21:43:35.392Z,70.02
2022-08-02T21:46:45.252Z,70.14
2022-08-02T21:50:12.870Z,70.47
2022-08-02T21:53:09.428Z,70.56
2022-08-02T21:56:15.175Z,71.10
2022-08-02T21:59:18.946Z,71.47
2022-08-02T22:02:30.609Z,71.66
2022-08-02T22:05:37.200Z,71.81
2022-08-02T22:08:39.700Z,72.22
2022-08-02T22:11:46.891Z,72.09
2022-08-02T22:14:53.942Z,72.13
2022-08-02T22:18:00.031Z,71.71
2022-08-02T22:21:02.303Z,71.85
2022-08-02T22:24:19.454Z,71.20
2022-08-02T22:28:34.845Z,71.14
2022-08-02T22:30:54.332Z,70.66
2022-08-02T22:34:05.907Z,70.46
2022-08-02T22:38:17.506Z,70.51
2022-08-02T22:40:53.858Z,70.83
2022-08-02T22:43:57.223Z,71.24
2022-08-02T22:47:13.796Z,71.34
2022-08-02T22:50:19.327Z,71.23
2022-08-02T22:53:35.262Z,71.15
2022-08-02T22:56:38.647Z,71.02
2022-08-02T22:59:00.635Z,58.55
2022-08-02T22:59:46.548Z,71.39
2022-08-02T23:02:53.245Z,71.67
2022-08-02T23:06:00.940Z,71.66
2022-08-02T23:09:02.864Z,72.08
2022-08-02T23:12:11.991Z,72.43
2022-08-02T23:15:15.141Z,72.61
2022-08-02T23:18:35.863Z,72.80
2022-08-02T23:22:01.248Z,72.98
2022-08-02T23:25:08.822Z,73.32
2022-08-02T23:28:11.277Z,73.10
2022-08-02T23:31:37.998Z,73.51
2022-08-02T23:34:40.417Z,73.93
2022-08-02T23:38:00.429Z,74.15
2022-08-02T23:41:04.789Z,73.99
2022-08-02T23:44:15.004Z,74.17
2022-08-02T23:47:17.385Z,74.05
2022-08-02T23:50:19.454Z,74.24
2022-08-02T23:53:21.461Z,74.73
2022-08-02T23:56:23.443Z,74.87
2022-08-02T23:59:25.384Z,75.08
